createdAt,value
2023-01-10T00:00:37.615Z,98318.97
2023-01-10T00:01:41.882Z,98320.69
2023-01-10T00:02:46.663Z,98324.06
2023-01-10T00:03:50.718Z,98320.56
2023-01-10T00:04:54.852Z,98317.06
2023-01-10T00:06:00.084Z,98323.34
2023-01-10T00:07:06.831Z,98324.78
2023-01-10T00:08:17.069Z,98322.34
2023-01-10T00:09:21.951Z,98324.03
2023-01-10T00:10:26.813Z,98325.25
2023-01-10T00:11:51.248Z,98325.00
2023-01-10T00:13:15.318Z,98331.38
2023-01-10T00:14:19.668Z,98327.28
2023-01-10T00:15:23.567Z,98334.25
2023-01-10T00:16:28.037Z,98337.50
2023-01-10T00:17:32.089Z,98334.88
2023-01-10T00:18:38.500Z,98336.06
2023-01-10T00:19:45.249Z,98333.41
2023-01-10T00:20:50.237Z,98338.69
2023-01-10T00:21:54.648Z,98343.06
2023-01-10T00:22:58.805Z,98338.59
2023-01-10T00:24:21.952Z,98344.63
2023-01-10T00:25:26.217Z,98332.56
2023-01-10T00:26:30.256Z,98343.06
2023-01-10T00:27:35.846Z,98332.56
2023-01-10T00:28:39.686Z,98347.59
2023-01-10T00:29:43.531Z,98347.34
2023-01-10T00:31:01.758Z,98352.44
2023-01-10T00:32:06.165Z,98341.09
2023-01-10T00:33:17.537Z,98348.28
2023-01-10T00:34:21.624Z,98345.41
2023-01-10T00:35:26.847Z,98348.66
2023-01-10T00:36:30.995Z,98352.38
2023-01-10T00:37:35.407Z,98352.25
2023-01-10T00:38:39.432Z,98361.03
2023-01-10T00:39:43.513Z,98352.63
2023-01-10T00:40:48.584Z,98349.03
2023-01-10T00:42:12.661Z,98352.63
2023-01-10T00:43:35.521Z,98357.06
2023-01-10T00:44:39.559Z,98355.28
2023-01-10T00:45:48.341Z,98368.38
2023-01-10T00:46:53.297Z,98359.63
2023-01-10T00:47:57.594Z,98365.88
2023-01-10T00:49:01.237Z,98370.91
2023-01-10T00:50:06.363Z,98363.94
2023-01-10T00:51:10.357Z,98367.44
2023-01-10T00:52:14.289Z,98371.16
2023-01-10T00:53:18.695Z,98370.28
2023-01-10T00:54:23.318Z,98371.88
2023-01-10T00:55:27.222Z,98372.72
2023-01-10T00:56:31.209Z,98371.88
2023-01-10T00:57:35.038Z,98375.38
2023-01-10T00:58:39.068Z,98376.44
2023-01-10T00:59:43.091Z,98374.00
2023-01-10T01:00:49.944Z,98376.06
2023-01-10T01:01:54.254Z,98377.75
2023-01-10T01:02:58.266Z,98381.44
2023-01-10T01:04:02.365Z,98383.50
2023-01-10T01:05:07.304Z,98380.84
2023-01-10T01:06:11.546Z,98380.72
2023-01-10T01:07:15.699Z,98383.16
2023-01-10T01:08:20.611Z,98384.72
2023-01-10T01:09:24.889Z,98381.34
2023-01-10T01:10:33.997Z,98372.59
2023-01-10T01:11:37.937Z,98381.25
2023-01-10T01:12:44.553Z,98380.41
2023-01-10T01:13:48.502Z,98384.84
2023-01-10T01:14:52.554Z,98390.00
2023-01-10T01:16:00.028Z,98385.44
2023-01-10T01:17:04.033Z,98387.97
2023-01-10T01:18:08.893Z,98388.81
2023-01-10T01:19:14.403Z,98386.28
2023-01-10T01:20:19.051Z,98389.88
2023-01-10T01:21:22.685Z,98389.88
2023-01-10T01:22:26.238Z,98387.25
2023-01-10T01:23:30.951Z,98385.44
2023-01-10T01:24:34.649Z,98384.59
2023-01-10T01:25:38.772Z,98393.25
2023-01-10T01:26:42.913Z,98392.41
2023-01-10T01:27:46.868Z,98388.09
2023-01-10T01:28:51.154Z,98391.09
2023-01-10T01:29:55.365Z,98395.31
2023-01-10T01:31:00.629Z,98385.69
2023-01-10T01:32:04.909Z,98393.75
2023-01-10T01:33:09.056Z,98387.63
2023-01-10T01:34:14.872Z,98395.63
2023-01-10T01:35:19.108Z,98390.34
2023-01-10T01:36:23.786Z,98393.97
2023-01-10T01:37:27.811Z,98393.97
2023-01-10T01:38:31.621Z,98393.00
2023-01-10T01:39:35.613Z,98390.81
2023-01-10T01:40:41.843Z,98394.09
2023-01-10T01:41:58.148Z,98397.06
2023-01-10T01:43:02.555Z,98396.00
2023-01-10T01:44:18.087Z,98400.22
2023-01-10T01:45:24.801Z,98402.00
2023-01-10T01:46:29.614Z,98394.09
2023-01-10T01:47:34.475Z,98399.69
2023-01-10T01:48:44.197Z,98398.84
2023-01-10T01:49:49.864Z,98398.75
2023-01-10T01:51:08.816Z,98399.69
2023-01-10T01:52:26.084Z,98400.44
2023-01-10T01:53:56.942Z,98392.50
2023-01-10T01:55:04.432Z,98393.44
2023-01-10T01:56:28.862Z,98397.41
2023-01-10T01:57:33.926Z,98402.06
2023-01-10T01:59:13.096Z,98408.66
2023-01-10T02:00:17.596Z,98397.34
2023-01-10T02:01:23.581Z,98397.22
2023-01-10T02:02:35.805Z,98409.75
2023-01-10T02:03:43.898Z,98403.59
2023-01-10T02:04:59.495Z,98406.75
2023-01-10T02:06:03.340Z,98404.22
2023-01-10T02:07:10.532Z,98402.44
2023-01-10T02:08:17.943Z,98406.97
2023-01-10T02:09:29.989Z,98408.56
2023-01-10T02:10:53.751Z,98408.44
2023-01-10T02:11:58.109Z,98401.34
2023-01-10T02:13:07.114Z,98407.38
2023-01-10T02:14:15.318Z,98407.38
2023-01-10T02:15:20.000Z,98403.75
2023-01-10T02:16:24.074Z,98413.38
2023-01-10T02:17:27.956Z,98410.00
2023-01-10T02:18:32.274Z,98413.50
2023-01-10T02:20:07.655Z,98410.97
2023-01-10T02:21:26.975Z,98415.19
2023-01-10T02:23:12.694Z,98409.06
2023-01-10T02:24:41.942Z,98414.59
2023-01-10T02:26:29.237Z,98408.44
2023-01-10T02:27:55.879Z,98414.31
2023-01-10T02:29:17.280Z,98415.03
2023-01-10T02:30:38.877Z,98413.19
2023-01-10T02:32:23.492Z,98417.28
2023-01-10T02:33:44.078Z,98418.00
2023-01-10T02:35:46.524Z,98423.28
2023-01-10T02:37:14.756Z,98428.56
2023-01-10T02:38:45.895Z,98424.59
2023-01-10T02:40:03.788Z,98425.44
2023-01-10T02:41:17.361Z,98430.72
2023-01-10T02:42:45.826Z,98426.28
2023-01-10T02:44:00.697Z,98436.63
2023-01-10T02:45:12.158Z,98425.09
2023-01-10T02:46:27.786Z,98430.63
2023-01-10T02:47:42.995Z,98428.28
2023-01-10T02:48:47.228Z,98427.69
2023-01-10T02:49:52.537Z,98434.66
2023-01-10T02:51:18.918Z,98429.38
2023-01-10T02:52:31.633Z,98434.75
2023-01-10T02:53:43.822Z,98433.91
2023-01-10T02:54:52.233Z,98435.91
2023-01-10T02:56:26.549Z,98441.75
2023-01-10T02:57:59.312Z,98448.59
2023-01-10T02:59:27.062Z,98442.78
2023-01-10T03:00:48.462Z,98444.69
2023-01-10T03:02:10.884Z,98452.63
2023-01-10T03:03:37.564Z,98449.13
2023-01-10T03:05:17.822Z,98449.25
2023-01-10T03:06:56.288Z,98450.22
2023-01-10T03:08:38.832Z,98453.81
2023-01-10T03:10:07.691Z,98460.13
2023-01-10T03:11:12.349Z,98452.13
2023-01-10T03:12:43.170Z,98451.16
2023-01-10T03:13:58.484Z,98458.25
2023-01-10T03:15:06.648Z,98464.38
2023-01-10T03:16:18.165Z,98460.97
2023-01-10T03:17:27.091Z,98463.03
2023-01-10T03:18:43.977Z,98461.94
2023-01-10T03:19:53.006Z,98463.97
2023-01-10T03:20:59.538Z,98470.31
2023-01-10T03:22:09.611Z,98464.81
2023-01-10T03:23:18.394Z,98467.47
2023-01-10T03:24:53.160Z,98473.91
2023-01-10T03:25:59.095Z,98476.66
2023-01-10T03:27:15.953Z,98472.94
2023-01-10T03:28:54.741Z,98479.44
2023-01-10T03:30:18.035Z,98480.50
2023-01-10T03:32:00.110Z,98477.50
2023-01-10T03:33:05.646Z,98488.50
2023-01-10T03:34:10.740Z,98490.00
2023-01-10T03:35:17.205Z,98488.31
2023-01-10T03:36:52.822Z,98488.09
2023-01-10T03:38:12.520Z,98491.56
2023-01-10T03:39:42.852Z,98492.28
2023-01-10T03:40:57.659Z,98488.09
2023-01-10T03:42:52.164Z,98490.63
2023-01-10T03:44:46.166Z,98495.91
2023-01-10T03:46:46.547Z,98509.22
2023-01-10T03:47:54.649Z,98508.38
2023-01-10T03:49:03.385Z,98514.00
2023-01-10T03:50:14.027Z,98513.06
2023-01-10T03:51:20.588Z,98517.09
2023-01-10T03:52:27.479Z,98519.72
2023-01-10T03:53:34.444Z,98523.84
2023-01-10T03:54:38.476Z,98522.88
2023-01-10T03:55:45.719Z,98525.31
2023-01-10T03:56:52.097Z,98524.47
2023-01-10T03:57:56.169Z,98532.06
2023-01-10T03:59:00.932Z,98528.38
2023-01-10T04:00:06.442Z,98540.94
2023-01-10T04:01:11.178Z,98531.22
2023-01-10T04:02:15.576Z,98534.81
2023-01-10T04:03:20.735Z,98539.28
2023-01-10T04:04:25.143Z,98536.50
2023-01-10T04:05:29.135Z,98547.84
2023-01-10T04:06:33.095Z,98549.41
2023-01-10T04:07:37.097Z,98542.25
2023-01-10T04:08:41.321Z,98548.28
2023-01-10T04:09:45.281Z,98542.75
2023-01-10T04:10:52.023Z,98545.72
2023-01-10T04:11:56.712Z,98544.47
2023-01-10T04:13:02.938Z,98555.13
2023-01-10T04:14:10.385Z,98550.69
2023-01-10T04:15:14.668Z,98552.38
2023-01-10T04:16:21.008Z,98547.75
2023-01-10T04:17:25.367Z,98558.50
2023-01-10T04:18:31.048Z,98569.28
2023-01-10T04:19:35.142Z,98556.06
2023-01-10T04:20:39.390Z,98552.38
2023-01-10T04:21:43.774Z,98561.03
2023-01-10T04:22:50.199Z,98566.97
2023-01-10T04:23:54.652Z,98560.00
2023-01-10T04:24:58.586Z,98556.41
2023-01-10T04:26:02.384Z,98558.50
2023-01-10T04:27:07.068Z,98559.66
2023-01-10T04:28:11.291Z,98558.50
2023-01-10T04:29:15.517Z,98561.34
2023-01-10T04:30:20.341Z,98563.34
2023-01-10T04:31:24.684Z,98562.38
2023-01-10T04:32:28.572Z,98562.06
2023-01-10T04:33:33.007Z,98564.19
2023-01-10T04:34:37.100Z,98570.59
2023-01-10T04:35:41.448Z,98566.91
2023-01-10T04:36:50.742Z,98577.06
2023-01-10T04:37:54.835Z,98573.47
2023-01-10T04:38:58.835Z,98567.00
2023-01-10T04:40:02.702Z,98577.19
2023-01-10T04:41:06.521Z,98578.41
2023-01-10T04:42:11.041Z,98579.19
2023-01-10T04:43:15.095Z,98583.63
2023-01-10T04:44:20.067Z,98584.47
2023-01-10T04:45:25.895Z,98587.84
2023-01-10T04:46:30.131Z,98591.03
2023-01-10T04:47:33.673Z,98590.38
2023-01-10T04:48:37.798Z,98596.09
2023-01-10T04:49:41.681Z,98600.66
2023-01-10T04:50:55.153Z,98593.25
2023-01-10T04:51:59.156Z,98600.13
2023-01-10T04:53:02.942Z,98599.06
2023-01-10T04:54:09.542Z,98605.59
2023-01-10T04:55:13.733Z,98609.84
2023-01-10T04:56:22.029Z,98609.63
2023-01-10T04:57:25.883Z,98611.72
2023-01-10T04:58:29.960Z,98602.22
2023-01-10T04:59:35.590Z,98607.28
2023-01-10T05:00:40.815Z,98613.44
2023-01-10T05:01:45.070Z,98604.97
2023-01-10T05:02:48.830Z,98603.47
2023-01-10T05:03:55.936Z,98608.56
2023-01-10T05:04:59.828Z,98610.25
2023-01-10T05:06:05.356Z,98616.03
2023-01-10T05:07:09.183Z,98620.09
2023-01-10T05:08:12.811Z,98621.78
2023-01-10T05:09:17.963Z,98621.00
2023-01-10T05:10:21.944Z,98625.38
2023-01-10T05:11:25.974Z,98623.75
2023-01-10T05:12:30.196Z,98629.25
2023-01-10T05:13:35.158Z,98636.34
2023-01-10T05:14:39.023Z,98633.97
2023-01-10T05:15:43.587Z,98647.06
2023-01-10T05:16:47.451Z,98643.53
2023-01-10T05:17:57.834Z,98643.75
2023-01-10T05:19:01.577Z,98645.03
2023-01-10T05:20:06.363Z,98646.72
2023-01-10T05:21:15.214Z,98645.03
2023-01-10T05:22:19.111Z,98645.03
2023-01-10T05:23:22.843Z,98648.81
2023-01-10T05:24:26.471Z,98649.88
2023-01-10T05:25:30.452Z,98651.47
2023-01-10T05:26:34.200Z,98660.03
2023-01-10T05:27:43.568Z,98662.22
2023-01-10T05:28:48.051Z,98664.75
2023-01-10T05:29:51.907Z,98666.28
2023-01-10T05:30:55.793Z,98666.66
2023-01-10T05:31:59.568Z,98655.25
2023-01-10T05:33:07.085Z,98660.53
2023-01-10T05:34:13.659Z,98664.88
2023-01-10T05:35:18.856Z,98665.06
2023-01-10T05:36:23.204Z,98670.00
2023-01-10T05:37:27.161Z,98668.38
2023-01-10T05:38:32.405Z,98675.19
2023-01-10T05:39:36.459Z,98678.47
2023-01-10T05:40:40.433Z,98675.72
2023-01-10T05:41:45.039Z,98689.84
2023-01-10T05:42:49.337Z,98686.69
2023-01-10T05:43:53.771Z,98680.34
2023-01-10T05:44:57.841Z,98694.50
2023-01-10T05:46:01.891Z,98691.00
2023-01-10T05:47:06.340Z,98693.56
2023-01-10T05:48:10.697Z,98698.44
2023-01-10T05:49:15.187Z,98702.66
2023-01-10T05:50:20.397Z,98695.59
2023-01-10T05:51:24.231Z,98701.63
2023-01-10T05:52:28.662Z,98700.13
2023-01-10T05:53:33.253Z,98701.44
2023-01-10T05:54:42.979Z,98700.50
2023-01-10T05:55:59.650Z,98708.84
2023-01-10T05:57:04.482Z,98708.66
2023-01-10T05:58:11.702Z,98715.00
2023-01-10T05:59:27.665Z,98717.06
2023-01-10T06:00:32.244Z,98719.63
2023-01-10T06:01:36.886Z,98719.72
2023-01-10T06:02:41.215Z,98723.91
2023-01-10T06:03:45.778Z,98719.75
2023-01-10T06:04:55.361Z,98736.25
2023-01-10T06:05:59.827Z,98731.06
2023-01-10T06:07:04.239Z,98729.44
2023-01-10T06:08:08.301Z,98733.16
2023-01-10T06:09:13.230Z,98735.13
2023-01-10T06:10:19.745Z,98732.78
2023-01-10T06:11:29.480Z,98739.50
2023-01-10T06:12:33.333Z,98739.28
2023-01-10T06:13:37.169Z,98737.59
2023-01-10T06:14:41.077Z,98737.78
2023-01-10T06:15:45.093Z,98747.78
2023-01-10T06:16:52.670Z,98734.28
2023-01-10T06:17:57.261Z,98747.47
2023-01-10T06:19:01.283Z,98736.75
2023-01-10T06:20:06.108Z,98750.59
2023-01-10T06:21:09.912Z,98750.53
2023-01-10T06:22:14.271Z,98753.81
2023-01-10T06:23:18.906Z,98757.00
2023-01-10T06:24:23.373Z,98760.97
2023-01-10T06:25:30.205Z,98760.66
2023-01-10T06:26:34.278Z,98761.16
2023-01-10T06:27:43.774Z,98766.16
2023-01-10T06:28:48.191Z,98767.00
2023-01-10T06:29:53.960Z,98777.94
2023-01-10T06:31:06.103Z,98768.53
2023-01-10T06:32:12.521Z,98771.63
2023-01-10T06:33:25.621Z,98770.00
2023-01-10T06:34:35.464Z,98779.91
2023-01-10T06:35:41.817Z,98777.81
2023-01-10T06:36:51.477Z,98784.34
2023-01-10T06:37:56.087Z,98790.09
2023-01-10T06:39:05.515Z,98783.94
2023-01-10T06:40:16.245Z,98793.66
2023-01-10T06:41:22.015Z,98796.69
2023-01-10T06:42:30.287Z,98792.34
2023-01-10T06:43:34.073Z,98793.66
2023-01-10T06:44:40.824Z,98788.00
2023-01-10T06:45:45.616Z,98794.31
2023-01-10T06:46:54.542Z,98790.63
2023-01-10T06:48:03.052Z,98800.19
2023-01-10T06:49:09.888Z,98800.19
2023-01-10T06:50:16.248Z,98804.41
2023-01-10T06:51:21.574Z,98807.63
2023-01-10T06:52:29.122Z,98817.13
2023-01-10T06:53:37.616Z,98810.06
2023-01-10T06:54:43.621Z,98811.66
2023-01-10T06:55:53.316Z,98810.91
2023-01-10T06:57:00.157Z,98814.03
2023-01-10T06:58:09.260Z,98811.97
2023-01-10T06:59:19.368Z,98811.97
2023-01-10T07:00:25.488Z,98805.94
2023-01-10T07:01:33.098Z,98816.00
2023-01-10T07:02:41.402Z,98820.72
2023-01-10T07:03:46.391Z,98809.41
2023-01-10T07:04:54.568Z,98808.63
2023-01-10T07:06:04.715Z,98815.41
2023-01-10T07:07:10.516Z,98807.22
2023-01-10T07:08:19.320Z,98810.75
2023-01-10T07:09:25.255Z,98811.53
2023-01-10T07:10:32.929Z,98809.25
2023-01-10T07:11:39.407Z,98805.94
2023-01-10T07:12:46.731Z,98810.84
2023-01-10T07:13:55.799Z,98817.38
2023-01-10T07:15:01.706Z,98811.50
2023-01-10T07:16:16.895Z,98811.75
2023-01-10T07:17:21.636Z,98816.03
2023-01-10T07:18:36.834Z,98815.16
2023-01-10T07:19:49.775Z,98816.19
2023-01-10T07:20:53.555Z,98816.38
2023-01-10T07:21:57.349Z,98824.84
2023-01-10T07:23:01.592Z,98827.59
2023-01-10T07:24:06.201Z,98826.84
2023-01-10T07:25:17.952Z,98823.91
2023-01-10T07:26:21.897Z,98822.16
2023-01-10T07:27:25.642Z,98830.50
2023-01-10T07:28:37.132Z,98831.63
2023-01-10T07:29:41.372Z,98838.78
2023-01-10T07:30:45.123Z,98843.00
2023-01-10T07:31:48.766Z,98848.38
2023-01-10T07:32:59.081Z,98845.53
2023-01-10T07:34:03.242Z,98847.81
2023-01-10T07:35:10.306Z,98851.16
2023-01-10T07:36:22.291Z,98849.88
2023-01-10T07:37:26.571Z,98846.97
2023-01-10T07:38:31.253Z,98844.59
2023-01-10T07:39:39.097Z,98842.47
2023-01-10T07:40:43.259Z,98842.00
2023-01-10T07:41:50.941Z,98851.53
2023-01-10T07:44:20.717Z,98844.19
2023-01-10T07:45:29.523Z,98845.34
2023-01-10T07:46:34.502Z,98854.69
2023-01-10T07:47:38.431Z,98849.38
2023-01-10T07:48:42.750Z,98845.50
2023-01-10T07:49:55.945Z,98854.84
2023-01-10T07:51:18.461Z,98851.94
2023-01-10T07:52:26.397Z,98852.59
2023-01-10T07:53:33.454Z,98848.09
2023-01-10T07:54:44.452Z,98844.69
2023-01-10T07:55:49.321Z,98845.72
2023-01-10T07:56:57.461Z,98849.78
2023-01-10T07:58:13.283Z,98845.06
2023-01-10T07:59:26.482Z,98841.69
2023-01-10T08:00:32.350Z,98845.00
2023-01-10T08:01:52.247Z,98849.44
2023-01-10T08:02:58.532Z,98847.16
2023-01-10T08:04:07.539Z,98848.09
2023-01-10T08:05:16.000Z,98845.28
2023-01-10T08:06:23.165Z,98859.88
2023-01-10T08:07:30.927Z,98861.31
2023-01-10T08:08:36.597Z,98868.09
2023-01-10T08:10:00.866Z,98859.06
2023-01-10T08:11:05.859Z,98868.69
2023-01-10T08:12:15.975Z,98873.75
2023-01-10T08:13:25.780Z,98867.53
2023-01-10T08:14:30.587Z,98872.66
2023-01-10T08:15:38.061Z,98877.94
2023-01-10T08:16:44.680Z,98872.53
2023-01-10T08:17:54.669Z,98884.69
2023-01-10T08:19:01.540Z,98883.31
2023-01-10T08:20:10.080Z,98883.19
2023-01-10T08:21:15.173Z,98888.28
2023-01-10T08:22:29.190Z,98894.34
2023-01-10T08:23:36.132Z,98899.53
2023-01-10T08:24:43.766Z,98898.47
2023-01-10T08:25:52.483Z,98895.84
2023-01-10T08:27:09.051Z,98898.38
2023-01-10T08:28:16.775Z,98908.00
2023-01-10T08:29:27.233Z,98898.31
2023-01-10T08:30:44.050Z,98901.69
2023-01-10T08:31:52.307Z,98906.88
2023-01-10T08:33:30.445Z,98912.34
2023-01-10T08:34:37.023Z,98916.69
2023-01-10T08:35:45.884Z,98914.41
2023-01-10T08:36:56.642Z,98912.41
2023-01-10T08:38:02.961Z,98915.84
2023-01-10T08:39:07.781Z,98916.09
2023-01-10T08:40:14.753Z,98920.28
2023-01-10T08:41:22.463Z,98919.31
2023-01-10T08:42:30.528Z,98917.78
2023-01-10T08:43:37.936Z,98912.41
2023-01-10T08:44:46.882Z,98922.13
2023-01-10T08:45:54.708Z,98929.97
2023-01-10T08:47:03.421Z,98919.94
2023-01-10T08:48:12.911Z,98924.56
2023-01-10T08:49:23.712Z,98922.94
2023-01-10T08:50:32.321Z,98923.13
2023-01-10T08:51:51.682Z,98933.50
2023-01-10T08:53:03.098Z,98929.00
2023-01-10T08:54:07.360Z,98935.22
2023-01-10T08:55:15.827Z,98945.59
2023-01-10T08:56:23.981Z,98946.69
2023-01-10T08:57:35.592Z,98942.25
2023-01-10T08:58:47.950Z,98947.63
2023-01-10T08:59:54.372Z,98938.63
2023-01-10T09:00:59.630Z,98952.66
2023-01-10T09:02:09.552Z,98957.19
2023-01-10T09:03:16.473Z,98954.06
2023-01-10T09:04:24.471Z,98965.91
2023-01-10T09:05:32.656Z,98969.63
2023-01-10T09:06:38.534Z,98972.13
2023-01-10T09:07:49.252Z,98971.19
2023-01-10T09:08:54.885Z,98966.84
2023-01-10T09:09:59.734Z,98968.34
2023-01-10T09:11:08.973Z,98973.63
2023-01-10T09:12:34.944Z,98969.09
2023-01-10T09:13:40.675Z,98964.59
2023-01-10T09:14:47.847Z,98968.94
2023-01-10T09:15:58.091Z,98966.00
2023-01-10T09:17:04.043Z,98965.44
2023-01-10T09:18:14.528Z,98970.31
2023-01-10T09:19:19.222Z,98968.63
2023-01-10T09:20:26.871Z,98971.94
2023-01-10T09:21:31.912Z,98965.13
2023-01-10T09:22:39.116Z,98973.81
2023-01-10T09:23:43.927Z,98967.50
2023-01-10T09:24:48.835Z,98973.41
2023-01-10T09:25:58.101Z,98969.94
2023-01-10T09:27:02.107Z,98972.13
2023-01-10T09:28:07.101Z,98975.41
2023-01-10T09:29:13.018Z,98977.69
2023-01-10T09:30:18.301Z,98975.66
2023-01-10T09:31:24.192Z,98977.25
2023-01-10T09:32:28.993Z,98983.19
2023-01-10T09:33:46.633Z,98985.56
2023-01-10T09:34:57.034Z,98986.31
2023-01-10T09:36:10.263Z,98985.31
2023-01-10T09:37:17.019Z,98993.88
2023-01-10T09:38:30.930Z,98984.94
2023-01-10T09:39:37.119Z,98995.31
2023-01-10T09:40:54.517Z,98992.09
2023-01-10T09:42:53.562Z,98991.94
2023-01-10T09:44:38.224Z,98989.19
2023-01-10T09:46:24.172Z,98989.84
2023-01-10T09:47:53.495Z,98984.94
2023-01-10T09:49:39.040Z,98993.88
2023-01-10T09:51:12.254Z,98989.19
2023-01-10T09:53:06.828Z,98998.41
2023-01-10T09:54:30.140Z,98998.50
2023-01-10T09:55:45.643Z,99001.03
2023-01-10T09:57:00.981Z,98997.47
2023-01-10T09:58:35.252Z,99007.06
2023-01-10T09:59:56.003Z,99002.66
2023-01-10T10:01:24.152Z,99000.78
2023-01-10T10:02:55.051Z,99005.97
2023-01-10T10:04:31.932Z,99006.63
2023-01-10T10:05:41.407Z,99010.91
2023-01-10T10:06:57.484Z,99016.06
2023-01-10T10:08:08.662Z,99014.28
2023-01-10T10:09:26.703Z,99024.94
2023-01-10T10:11:13.602Z,99021.53
2023-01-10T10:12:57.185Z,99024.25
2023-01-10T10:14:24.675Z,99022.56
2023-01-10T10:15:59.817Z,99024.09
2023-01-10T10:17:36.068Z,99023.84
2023-01-10T10:18:52.691Z,99031.69
2023-01-10T10:20:25.054Z,99030.38
2023-01-10T10:22:36.793Z,99031.44
2023-01-10T10:23:57.100Z,99032.94
2023-01-10T10:57:31.173Z,99054.94
2023-01-10T10:58:37.611Z,99061.63
2023-01-10T10:59:48.551Z,99071.06
2023-01-10T11:00:53.297Z,99067.50
2023-01-10T11:01:57.748Z,99056.72
2023-01-10T11:03:17.139Z,99068.69
2023-01-10T11:04:27.071Z,99067.50
2023-01-10T11:05:42.088Z,99075.16
2023-01-10T11:06:50.475Z,99080.59
2023-01-10T11:08:14.425Z,99075.75
2023-01-10T11:09:26.768Z,99083.63
2023-01-10T11:10:40.233Z,99083.47
2023-01-10T11:11:51.462Z,99073.84
2023-01-10T11:12:58.011Z,99085.91
2023-01-10T11:14:07.223Z,99084.03
2023-01-10T11:15:48.893Z,99093.41
2023-01-10T11:16:54.897Z,99092.91
2023-01-10T11:18:17.718Z,99094.03
2023-01-10T11:19:27.695Z,99101.56
2023-01-10T11:20:32.519Z,99092.78
2023-01-10T11:21:38.799Z,99105.69
2023-01-10T11:22:53.418Z,99101.25
2023-01-10T11:23:57.884Z,99107.22
2023-01-10T11:25:03.277Z,99104.00
2023-01-10T11:26:31.005Z,99106.81
2023-01-10T11:27:52.121Z,99115.19
2023-01-10T11:29:14.712Z,99108.91
2023-01-10T11:30:33.747Z,99115.72
2023-01-10T11:31:38.992Z,99109.56
2023-01-10T11:32:55.495Z,99116.25
2023-01-10T11:34:07.501Z,99110.03
2023-01-10T11:35:30.868Z,99123.06
2023-01-10T11:37:34.822Z,99120.47
2023-01-10T11:40:31.528Z,99123.56
2023-01-10T11:41:37.255Z,99127.00
2023-01-10T11:42:47.009Z,99125.34
2023-01-10T11:43:53.489Z,99133.78
2023-01-10T11:45:22.479Z,99135.75
2023-01-10T11:46:26.836Z,99136.84
2023-01-10T11:47:48.785Z,99129.44
2023-01-10T11:49:13.836Z,99134.47
2023-01-10T11:50:26.436Z,99137.97
2023-01-10T11:52:06.918Z,99136.31
2023-01-10T11:53:42.718Z,99144.34
2023-01-10T11:55:00.043Z,99146.97
2023-01-10T11:56:19.860Z,99150.47
2023-01-10T11:57:41.324Z,99154.38
2023-01-10T11:58:46.063Z,99151.22
2023-01-10T12:00:00.637Z,99155.59
2023-01-10T12:01:26.986Z,99158.72
2023-01-10T12:02:47.555Z,99159.59
2023-01-10T12:03:55.365Z,99163.75
2023-01-10T12:05:12.290Z,99160.88
2023-01-10T12:06:40.309Z,99161.72
2023-01-10T12:08:07.768Z,99171.34
2023-01-10T12:09:42.922Z,99168.50
2023-01-10T12:11:02.761Z,99170.38
2023-01-10T12:12:25.690Z,99178.91
2023-01-10T12:13:48.091Z,99183.69
2023-01-10T12:14:56.231Z,99185.13
2023-01-10T12:16:33.711Z,99185.97
2023-01-10T12:17:38.501Z,99183.34
2023-01-10T12:18:48.531Z,99187.59
2023-01-10T12:20:01.234Z,99189.28
2023-01-10T12:21:07.382Z,99196.22
2023-01-10T12:22:16.151Z,99191.94
2023-01-10T12:23:37.040Z,99194.41
2023-01-10T12:24:50.265Z,99203.84
2023-01-10T12:26:11.368Z,99210.25
2023-01-10T12:27:20.387Z,99207.44
2023-01-10T12:28:30.875Z,99213.47
2023-01-10T12:29:47.653Z,99218.75
2023-01-10T12:31:00.380Z,99215.94
2023-01-10T12:32:39.064Z,99225.56
2023-01-10T12:34:08.143Z,99225.72
2023-01-10T12:35:38.121Z,99226.75
2023-01-10T12:37:32.781Z,99227.78
2023-01-10T12:39:04.419Z,99226.25
2023-01-10T12:40:48.897Z,99232.28
2023-01-10T12:43:03.852Z,99233.41
2023-01-10T12:44:29.614Z,99230.06
2023-01-10T12:46:16.850Z,99227.72
2023-01-10T12:48:10.325Z,99232.47
2023-01-10T12:49:42.605Z,99229.84
2023-01-10T12:50:59.382Z,99229.84
2023-01-10T12:52:45.557Z,99242.78
2023-01-10T12:54:10.560Z,99239.34
2023-01-10T12:55:20.310Z,99238.44
2023-01-10T12:56:26.601Z,99235.63
2023-01-10T12:57:40.757Z,99238.09
2023-01-10T12:59:37.134Z,99229.25
2023-01-10T13:00:54.307Z,99238.03
2023-01-10T13:02:06.121Z,99241.75
2023-01-10T13:03:33.089Z,99231.88
2023-01-10T13:05:21.910Z,99236.22
2023-01-10T13:06:33.901Z,99238.69
2023-01-10T13:07:44.618Z,99240.22
2023-01-10T13:08:54.591Z,99237.56
2023-01-10T13:10:07.657Z,99245.75
2023-01-10T13:11:22.867Z,99248.06
2023-01-10T13:12:43.947Z,99246.28
2023-01-10T13:14:05.316Z,99250.63
2023-01-10T13:15:44.086Z,99250.38
2023-01-10T13:17:02.729Z,99250.44
2023-01-10T13:18:26.107Z,99259.22
2023-01-10T13:19:30.639Z,99262.63
2023-01-10T13:20:40.548Z,99263.41
2023-01-10T13:21:44.504Z,99265.19
2023-01-10T13:22:53.676Z,99262.34
2023-01-10T13:24:26.563Z,99267.66
2023-01-10T13:25:39.543Z,99274.81
2023-01-10T13:27:05.869Z,99271.31
2023-01-10T13:28:26.029Z,99275.25
2023-01-10T13:29:46.135Z,99280.28
2023-01-10T13:31:26.357Z,99288.09
2023-01-10T13:32:39.267Z,99294.56
2023-01-10T13:34:13.271Z,99294.56
2023-01-10T13:35:28.409Z,99291.16
2023-01-10T13:37:01.439Z,99287.41
2023-01-10T13:38:10.902Z,99294.38
2023-01-10T13:39:40.977Z,99290.31
2023-01-10T13:41:06.152Z,99289.53
2023-01-10T13:42:55.021Z,99294.47
2023-01-10T13:44:18.258Z,99297.03
2023-01-10T13:45:31.651Z,99297.81
2023-01-10T13:46:51.695Z,99299.53
2023-01-10T13:48:02.137Z,99297.53
2023-01-10T13:49:10.984Z,99297.50
2023-01-10T13:50:34.521Z,99304.47
2023-01-10T13:52:00.070Z,99304.47
2023-01-10T13:53:15.308Z,99312.28
2023-01-10T13:54:27.110Z,99305.22
2023-01-10T13:55:56.391Z,99318.44
2023-01-10T13:57:03.649Z,99316.63
2023-01-10T13:58:17.248Z,99306.94
2023-01-10T13:59:46.233Z,99310.31
2023-01-10T14:01:17.303Z,99316.53
2023-01-10T14:02:32.027Z,99321.31
2023-01-10T14:03:58.224Z,99318.25
2023-01-10T14:05:30.159Z,99322.34
2023-01-10T14:06:42.248Z,99318.75
2023-01-10T14:08:02.358Z,99322.09
2023-01-10T14:09:16.425Z,99319.47
2023-01-10T14:10:34.809Z,99320.34
2023-01-10T14:13:19.850Z,99324.38
2023-01-10T14:14:40.051Z,99325.31
2023-01-10T14:16:05.008Z,99320.97
2023-01-10T14:17:44.616Z,99326.88
2023-01-10T14:18:54.730Z,99324.38
2023-01-10T14:20:31.556Z,99326.00
2023-01-10T14:21:45.799Z,99319.94
2023-01-10T14:23:21.647Z,99326.88
2023-01-10T14:24:51.310Z,99332.25
2023-01-10T14:25:58.242Z,99336.50
2023-01-10T14:27:15.017Z,99335.47
2023-01-10T14:28:27.237Z,99339.75
2023-01-10T14:29:39.350Z,99337.00
2023-01-10T14:31:07.881Z,99332.81
2023-01-10T14:32:40.414Z,99347.81
2023-01-10T14:33:52.858Z,99344.22
2023-01-10T14:35:08.254Z,99346.88
2023-01-10T14:36:25.543Z,99340.59
2023-01-10T14:40:51.081Z,99336.41
2023-01-10T14:42:04.180Z,99336.50
2023-01-10T14:43:27.224Z,99340.16
2023-01-10T14:45:20.085Z,99334.78
2023-01-10T14:46:59.984Z,99340.06
2023-01-10T14:48:33.402Z,99340.41
2023-01-10T14:49:54.088Z,99338.53
2023-01-10T14:52:47.906Z,99342.00
2023-01-10T14:54:19.709Z,99338.53
2023-01-10T14:55:28.661Z,99342.81
2023-01-10T14:56:46.850Z,99344.31
2023-01-10T14:58:11.923Z,99354.88